Wynyard, Canada
Current Conditions -  °F | °C
As of 9:00 PM on Saturday 25 Oct 2014 (Local Time) from CYQV Reporting Station
Clear Clear  
Wind Chill: 31°   Ceiling: Unl
Heat Index: 36°   Visibility: 9mi
Dew Point: 27°   Wind: 6mph
Humidity: 70%   Direction: 100°E
Pressure: 29.92"   Gusts: NA
Location:  51.77°N, 104.18°W
Report Text: CYQV 260300Z AUTO 10005KT 9SM CLR 02/M03 A2992 RMK SLP152
Loading
Personal Weather Stations






























Interactive Weather Map
Tropical Storm Tracking
New forecast layout! Learn more

10-Day Weather Forecast

Advertisements
Track Severe Weather on mobile